createdAt,value
2018-05-04T00:00:59.995Z,14.20
2018-05-04T00:03:27.545Z,14.20
2018-05-04T00:05:55.105Z,14.20
2018-05-04T00:08:22.597Z,14.30
2018-05-04T00:10:50.112Z,14.30
2018-05-04T00:13:17.623Z,14.30
2018-05-04T00:15:45.164Z,14.20
2018-05-04T00:18:12.661Z,14.00
2018-05-04T00:20:40.978Z,14.00
2018-05-04T00:23:08.465Z,14.00
2018-05-04T00:25:35.997Z,14.10
2018-05-04T00:28:03.543Z,14.00
2018-05-04T00:30:31.065Z,14.00
2018-05-04T00:32:59.370Z,14.10
2018-05-04T00:35:26.925Z,14.10
2018-05-04T00:37:54.429Z,14.10
2018-05-04T00:40:21.974Z,14.00
2018-05-04T00:42:49.532Z,13.90
2018-05-04T00:45:17.041Z,13.90
2018-05-04T00:47:45.299Z,13.70
2018-05-04T00:50:12.834Z,13.70
2018-05-04T00:52:40.329Z,13.80
2018-05-04T00:55:08.622Z,13.60
2018-05-04T00:57:36.930Z,13.70
2018-05-04T01:00:04.430Z,13.70
2018-05-04T01:02:31.921Z,13.60
2018-05-04T01:04:59.462Z,13.50
2018-05-04T01:07:27.738Z,13.50
2018-05-04T01:09:56.036Z,13.60
2018-05-04T01:12:24.340Z,13.50
2018-05-04T01:14:51.867Z,13.40
2018-05-04T01:17:19.382Z,13.30
2018-05-04T01:19:46.928Z,13.20
2018-05-04T01:22:14.417Z,13.20
2018-05-04T01:24:42.712Z,13.20
2018-05-04T01:27:10.226Z,13.20
2018-05-04T01:29:37.714Z,13.20
2018-05-04T01:32:05.249Z,13.10
2018-05-04T01:34:32.782Z,13.00
2018-05-04T01:37:00.277Z,12.90
2018-05-04T01:39:27.801Z,12.90
2018-05-04T01:41:55.309Z,12.80
2018-05-04T01:44:23.597Z,12.80
2018-05-04T01:46:51.857Z,12.70
2018-05-04T01:49:19.404Z,12.70
2018-05-04T01:51:46.906Z,12.70
2018-05-04T01:54:14.437Z,12.70
2018-05-04T01:56:42.730Z,12.60
2018-05-04T01:59:11.024Z,12.40
2018-05-04T02:01:38.525Z,12.40
2018-05-04T02:04:06.066Z,12.30
2018-05-04T02:06:33.582Z,12.30
2018-05-04T02:09:01.845Z,12.30
2018-05-04T02:11:30.135Z,12.30
2018-05-04T02:13:57.679Z,12.20
2018-05-04T02:16:25.948Z,12.20
2018-05-04T02:18:53.472Z,12.20
2018-05-04T02:21:21.042Z,12.10
2018-05-04T02:23:48.546Z,12.00
2018-05-04T02:26:16.801Z,12.00
2018-05-04T02:28:44.354Z,12.00
2018-05-04T02:31:12.678Z,11.90
2018-05-04T02:33:40.192Z,11.90
2018-05-04T02:36:08.506Z,11.90
2018-05-04T02:38:36.033Z,11.90
2018-05-04T02:41:03.535Z,11.90
2018-05-04T02:43:31.062Z,11.90
2018-05-04T02:45:59.354Z,11.90
2018-05-04T02:48:26.876Z,11.80
2018-05-04T02:50:54.410Z,11.80
2018-05-04T02:53:21.898Z,11.70
2018-05-04T02:55:49.435Z,11.70
2018-05-04T02:58:16.937Z,11.70
2018-05-04T03:00:45.234Z,11.60
2018-05-04T03:03:12.767Z,11.60
2018-05-04T03:05:41.062Z,11.60
2018-05-04T03:08:08.596Z,11.60
2018-05-04T03:10:36.878Z,11.50
2018-05-04T03:13:05.154Z,11.40
2018-05-04T03:15:33.464Z,11.30
2018-05-04T03:18:00.982Z,11.30
2018-05-04T03:20:29.281Z,11.30
2018-05-04T03:22:56.790Z,11.30
2018-05-04T03:25:24.316Z,11.30
2018-05-04T03:27:52.630Z,11.30
2018-05-04T03:30:20.129Z,11.20
2018-05-04T03:32:48.428Z,11.20
2018-05-04T03:35:15.942Z,11.10
2018-05-04T03:37:43.486Z,11.20
2018-05-04T03:40:10.991Z,11.20
2018-05-04T03:42:39.374Z,11.20
2018-05-04T03:45:06.894Z,11.10
2018-05-04T03:47:35.159Z,11.10
2018-05-04T03:50:02.690Z,11.00
2018-05-04T03:52:30.204Z,11.00
2018-05-04T03:54:58.495Z,11.00
2018-05-04T03:57:38.067Z,10.90
2018-05-04T04:00:17.420Z,11.00
2018-05-04T04:02:56.869Z,11.00
2018-05-04T04:05:24.393Z,11.00
2018-05-04T04:07:52.712Z,10.90
2018-05-04T04:10:20.204Z,10.90
2018-05-04T04:12:47.699Z,10.80
2018-05-04T04:15:15.221Z,10.80
2018-05-04T04:17:42.741Z,10.80
2018-05-04T04:20:10.265Z,10.80
2018-05-04T04:22:37.766Z,10.90
2018-05-04T04:25:05.320Z,10.90
2018-05-04T04:27:32.818Z,10.80
2018-05-04T04:30:00.355Z,10.80
2018-05-04T04:32:28.655Z,10.90
2018-05-04T04:34:56.198Z,10.90
2018-05-04T04:37:24.452Z,10.90
2018-05-04T04:39:51.941Z,10.90
2018-05-04T04:42:19.486Z,10.90
2018-05-04T04:44:47.749Z,11.20
2018-05-04T04:47:15.297Z,11.10
2018-05-04T04:49:42.806Z,11.20
2018-05-04T04:52:10.315Z,11.20
2018-05-04T04:54:37.854Z,11.20
2018-05-04T04:57:05.359Z,11.20
2018-05-04T04:59:32.878Z,11.10
2018-05-04T05:02:00.398Z,11.10
2018-05-04T05:04:27.989Z,11.30
2018-05-04T05:06:55.505Z,11.40
2018-05-04T05:09:23.018Z,11.50
2018-05-04T05:11:50.559Z,11.60
2018-05-04T05:14:18.113Z,11.60
2018-05-04T05:16:45.622Z,11.70
2018-05-04T05:19:13.895Z,11.70
2018-05-04T05:21:42.188Z,11.70
2018-05-04T05:24:09.719Z,11.80
2018-05-04T05:26:37.220Z,11.70
2018-05-04T05:29:04.786Z,11.70
2018-05-04T05:31:32.295Z,11.70
2018-05-04T05:33:59.802Z,11.70
2018-05-04T05:36:27.333Z,11.70
2018-05-04T05:38:55.587Z,11.90
2018-05-04T05:41:23.086Z,11.80
2018-05-04T05:43:50.631Z,11.90
2018-05-04T05:46:18.885Z,12.20
2018-05-04T05:48:47.207Z,12.10
2018-05-04T05:51:14.823Z,12.10
2018-05-04T05:53:42.367Z,12.20
2018-05-04T05:56:09.917Z,12.40
2018-05-04T05:58:37.435Z,12.40
2018-05-04T06:01:04.955Z,12.30
2018-05-04T06:03:32.477Z,12.30
2018-05-04T06:06:00.075Z,12.30
2018-05-04T06:08:27.579Z,12.30
2018-05-04T06:10:55.075Z,12.10
2018-05-04T06:13:22.620Z,12.10
2018-05-04T06:15:50.130Z,12.30
2018-05-04T06:18:18.456Z,12.20
2018-05-04T06:20:46.001Z,12.20
2018-05-04T06:23:13.479Z,12.20
2018-05-04T06:25:41.013Z,12.20
2018-05-04T06:28:08.517Z,12.20
2018-05-04T06:30:36.086Z,12.30
2018-05-04T06:33:04.376Z,12.40
2018-05-04T06:35:31.893Z,12.40
2018-05-04T06:37:59.421Z,12.50
2018-05-04T06:40:26.955Z,12.60
2018-05-04T06:42:54.496Z,12.60
2018-05-04T06:45:22.761Z,12.80
2018-05-04T06:47:50.279Z,12.70
2018-05-04T06:50:17.837Z,12.70
2018-05-04T06:52:45.378Z,12.90
2018-05-04T06:55:12.907Z,13.10
2018-05-04T06:57:41.230Z,13.00
2018-05-04T07:00:08.757Z,13.00
2018-05-04T07:02:37.037Z,13.00
2018-05-04T07:05:05.351Z,13.20
2018-05-04T07:07:32.869Z,13.10
2018-05-04T07:10:01.170Z,13.30
2018-05-04T07:12:28.705Z,13.30
2018-05-04T07:14:56.980Z,13.30
2018-05-04T07:17:25.289Z,13.50
2018-05-04T07:19:52.825Z,13.50
2018-05-04T07:22:21.146Z,13.80
2018-05-04T07:24:48.680Z,13.80
2018-05-04T07:27:16.184Z,13.80
2018-05-04T07:29:43.680Z,14.00
2018-05-04T07:32:11.230Z,14.10
2018-05-04T07:34:39.508Z,14.50
2018-05-04T07:37:07.813Z,14.50
2018-05-04T07:39:35.331Z,14.50
2018-05-04T07:42:03.589Z,14.70
2018-05-04T07:44:31.110Z,14.70
2018-05-04T07:46:58.648Z,14.70
2018-05-04T07:49:26.182Z,14.70
2018-05-04T07:51:54.479Z,14.70
2018-05-04T07:54:22.007Z,14.70
2018-05-04T07:56:49.525Z,14.80
2018-05-04T07:59:17.070Z,14.90
2018-05-04T08:01:44.602Z,14.80
2018-05-04T08:04:12.889Z,15.00
2018-05-04T08:06:40.469Z,15.00
2018-05-04T08:09:07.961Z,15.10
2018-05-04T08:11:35.506Z,15.20
2018-05-04T08:14:03.008Z,15.20
2018-05-04T08:16:31.301Z,15.10
2018-05-04T08:18:58.793Z,15.10
2018-05-04T08:21:26.354Z,15.30
2018-05-04T08:23:53.871Z,15.50
2018-05-04T08:26:22.174Z,15.60
2018-05-04T08:28:49.696Z,15.60
2018-05-04T08:31:17.981Z,15.80
2018-05-04T08:33:45.501Z,15.80
2018-05-04T08:36:13.029Z,15.90
2018-05-04T08:38:40.530Z,15.90
2018-05-04T08:41:08.854Z,16.00
2018-05-04T08:43:36.372Z,16.00
2018-05-04T08:46:04.649Z,16.20
2018-05-04T08:48:32.939Z,16.10
2018-05-04T08:51:01.283Z,16.40
2018-05-04T08:53:29.506Z,16.20
2018-05-04T08:55:57.996Z,16.20
2018-05-04T08:58:29.772Z,16.30
2018-05-04T09:00:57.330Z,16.10
2018-05-04T09:03:24.833Z,16.10
2018-05-04T09:05:52.375Z,16.10
2018-05-04T09:08:19.887Z,16.30
2018-05-04T09:10:47.425Z,16.60
2018-05-04T09:13:15.681Z,17.00
2018-05-04T09:15:43.558Z,17.00
2018-05-04T09:18:11.836Z,16.90
2018-05-04T09:20:40.150Z,17.10
2018-05-04T09:23:07.685Z,17.10
2018-05-04T09:25:35.957Z,17.50
2018-05-04T09:28:04.257Z,17.60
2018-05-04T09:30:31.762Z,17.60
2018-05-04T09:32:59.284Z,17.80
2018-05-04T09:35:26.809Z,17.80
2018-05-04T09:37:55.118Z,18.00
2018-05-04T09:40:22.609Z,18.00
2018-05-04T09:42:51.004Z,18.30
2018-05-04T09:45:18.375Z,18.30
2018-05-04T09:47:46.636Z,18.20
2018-05-04T09:50:14.159Z,18.20
2018-05-04T09:52:41.644Z,18.60
2018-05-04T09:55:09.180Z,18.90
2018-05-04T09:57:36.705Z,19.10
2018-05-04T10:00:04.972Z,19.50
2018-05-04T10:02:33.275Z,19.70
2018-05-04T10:05:00.806Z,19.60
2018-05-04T10:07:29.071Z,19.70
2018-05-04T10:09:57.353Z,19.50
2018-05-04T10:12:25.649Z,19.10
2018-05-04T10:14:53.140Z,19.10
2018-05-04T10:17:20.660Z,19.30
2018-05-04T10:19:48.177Z,19.70
2018-05-04T10:22:15.726Z,19.70
2018-05-04T10:24:43.251Z,19.70
2018-05-04T10:27:10.760Z,19.70
2018-05-04T10:29:38.281Z,19.50
2018-05-04T10:32:05.833Z,19.90
2018-05-04T10:34:33.369Z,20.20
2018-05-04T10:37:01.668Z,20.20
2018-05-04T10:39:29.215Z,20.10
2018-05-04T10:41:56.712Z,20.90
2018-05-04T10:44:24.203Z,21.10
2018-05-04T10:46:52.529Z,20.80
2018-05-04T10:49:20.017Z,20.70
2018-05-04T10:51:47.541Z,21.50
2018-05-04T10:54:15.046Z,21.00
2018-05-04T10:56:42.570Z,20.60
2018-05-04T10:59:10.085Z,21.30
2018-05-04T11:01:38.351Z,22.40
2018-05-04T11:04:06.648Z,23.30
2018-05-04T11:06:34.129Z,23.20
2018-05-04T11:09:01.653Z,23.50
2018-05-04T11:11:29.150Z,23.30
2018-05-04T11:13:56.659Z,23.60
2018-05-04T11:16:25.022Z,23.40
2018-05-04T11:18:52.490Z,23.40
2018-05-04T11:21:20.043Z,23.70
2018-05-04T11:23:47.578Z,23.30
2018-05-04T11:26:15.147Z,23.70
2018-05-04T11:28:42.650Z,24.00
2018-05-04T11:31:10.211Z,24.40
2018-05-04T11:33:37.737Z,24.40
2018-05-04T11:36:05.232Z,24.90
2018-05-04T11:38:32.776Z,24.80
2018-05-04T11:41:01.063Z,25.40
2018-05-04T11:43:28.622Z,25.40
2018-05-04T11:45:56.113Z,25.10
2018-05-04T11:48:23.634Z,25.40
2018-05-04T11:50:51.917Z,26.30
2018-05-04T11:53:19.438Z,26.20
2018-05-04T11:55:46.958Z,26.30
2018-05-04T11:58:14.497Z,26.80
2018-05-04T12:00:42.003Z,27.20
2018-05-04T12:03:09.508Z,27.00
2018-05-04T12:05:37.057Z,27.70
2018-05-04T12:08:05.344Z,27.70
2018-05-04T12:10:32.874Z,27.70
2018-05-04T12:13:00.414Z,27.00
2018-05-04T12:15:27.973Z,27.10
2018-05-04T12:17:55.480Z,27.30
2018-05-04T12:20:23.004Z,27.60
2018-05-04T12:22:50.576Z,27.50
2018-05-04T12:25:18.090Z,27.70
2018-05-04T12:27:45.616Z,27.40
2018-05-04T12:30:13.158Z,27.30
2018-05-04T12:32:41.432Z,26.80
2018-05-04T12:35:09.709Z,27.00
2018-05-04T12:37:37.995Z,27.50
2018-05-04T12:40:06.252Z,28.00
2018-05-04T12:42:34.577Z,28.30
2018-05-04T12:45:02.093Z,28.30
2018-05-04T12:47:30.372Z,28.30
2018-05-04T12:49:58.668Z,28.00
2018-05-04T12:52:26.920Z,27.80
2018-05-04T12:54:55.240Z,28.10
2018-05-04T12:57:22.781Z,28.00
2018-05-04T12:59:50.322Z,27.90
2018-05-04T13:02:18.621Z,28.10
2018-05-04T13:04:46.153Z,28.00
2018-05-04T13:07:14.461Z,28.40
2018-05-04T13:09:42.008Z,28.40
2018-05-04T13:12:09.530Z,27.80
2018-05-04T13:14:37.055Z,28.00
2018-05-04T13:17:04.593Z,27.90
2018-05-04T13:19:32.108Z,28.30
2018-05-04T13:21:59.673Z,28.20
2018-05-04T13:24:27.178Z,27.20
2018-05-04T13:26:54.702Z,27.70
2018-05-04T13:29:22.982Z,28.30
2018-05-04T13:31:51.237Z,28.30
2018-05-04T13:34:18.755Z,28.20
2018-05-04T13:36:46.268Z,28.10
2018-05-04T13:39:14.554Z,28.30
2018-05-04T13:41:42.824Z,28.00
2018-05-04T13:44:11.116Z,28.40
2018-05-04T13:46:39.421Z,28.10
2018-05-04T13:49:06.947Z,28.10
2018-05-04T13:51:35.341Z,29.50
2018-05-04T13:54:02.760Z,29.50
2018-05-04T13:56:31.062Z,29.00
2018-05-04T13:58:59.374Z,28.90
2018-05-04T14:01:27.665Z,28.40
2018-05-04T14:03:55.269Z,28.40
2018-05-04T14:06:22.755Z,27.80
2018-05-04T14:08:50.266Z,28.20
2018-05-04T14:11:17.759Z,28.80
2018-05-04T14:13:45.316Z,29.20
2018-05-04T14:16:12.854Z,28.80
2018-05-04T14:18:41.167Z,28.60
2018-05-04T14:21:08.672Z,28.60
2018-05-04T14:23:36.197Z,28.90
2018-05-04T14:26:03.733Z,28.80
2018-05-04T14:28:31.258Z,29.00
2018-05-04T14:30:58.818Z,29.00
2018-05-04T14:33:26.345Z,28.90
2018-05-04T14:35:53.910Z,28.80
2018-05-04T14:38:21.408Z,29.00
2018-05-04T14:40:49.722Z,29.70
2018-05-04T14:43:17.261Z,29.60
2018-05-04T14:45:44.768Z,29.80
2018-05-04T14:48:12.301Z,29.90
2018-05-04T14:50:39.797Z,29.90
2018-05-04T14:53:08.112Z,28.80
2018-05-04T14:55:35.615Z,28.70
2018-05-04T14:58:03.158Z,29.10
2018-05-04T15:00:30.645Z,29.40
2018-05-04T15:02:58.216Z,29.60
2018-05-04T15:05:25.730Z,29.50
2018-05-04T15:07:53.262Z,28.60
2018-05-04T15:10:20.816Z,28.70
2018-05-04T15:12:49.096Z,28.60
2018-05-04T15:15:16.614Z,28.50
2018-05-04T15:17:44.178Z,28.80
2018-05-04T15:20:11.693Z,28.60
2018-05-04T15:22:39.208Z,28.30
2018-05-04T15:25:06.790Z,28.30
2018-05-04T15:27:39.150Z,28.50
2018-05-04T15:30:06.694Z,28.90
2018-05-04T15:32:34.215Z,29.10
2018-05-04T15:35:01.740Z,29.20
2018-05-04T15:37:29.244Z,28.90
2018-05-04T15:39:56.781Z,28.20
2018-05-04T15:42:24.293Z,28.50
2018-05-04T15:44:52.607Z,27.90
2018-05-04T15:47:20.137Z,27.90
2018-05-04T15:49:48.472Z,27.90
2018-05-04T15:52:15.966Z,27.90
2018-05-04T15:54:44.324Z,28.30
2018-05-04T15:57:11.801Z,28.30
2018-05-04T15:59:40.093Z,27.70
2018-05-04T16:02:07.645Z,27.60
2018-05-04T16:04:35.915Z,28.10
2018-05-04T16:07:04.228Z,28.00
2018-05-04T16:09:31.793Z,28.00
2018-05-04T16:11:59.309Z,27.90
2018-05-04T16:14:27.617Z,27.60
2018-05-04T16:16:55.133Z,27.60
2018-05-04T16:19:22.661Z,27.10
2018-05-04T16:21:50.182Z,26.70
2018-05-04T16:24:18.475Z,26.00
2018-05-04T16:26:46.743Z,25.70
2018-05-04T16:29:14.311Z,25.60
2018-05-04T16:31:41.868Z,25.50
2018-05-04T16:34:10.157Z,25.40
2018-05-04T16:36:37.685Z,25.30
2018-05-04T16:39:05.209Z,25.40
2018-05-04T16:41:32.849Z,25.60
2018-05-04T16:44:00.311Z,25.60
2018-05-04T16:46:33.634Z,25.50
2018-05-04T16:49:07.934Z,25.70
2018-05-04T16:51:36.319Z,25.60
2018-05-04T16:54:03.858Z,25.50
2018-05-04T16:56:31.374Z,25.70
2018-05-04T16:58:58.919Z,25.80
2018-05-04T17:01:27.221Z,25.20
2018-05-04T17:03:54.710Z,25.20
2018-05-04T17:06:22.216Z,25.20
2018-05-04T17:08:50.550Z,24.80
2018-05-04T17:11:18.077Z,24.80
2018-05-04T17:13:45.615Z,24.50
2018-05-04T17:16:13.872Z,24.30
2018-05-04T17:18:42.165Z,24.10
2018-05-04T17:21:10.458Z,24.20
2018-05-04T17:23:37.975Z,24.20
2018-05-04T17:26:05.517Z,24.10
2018-05-04T17:28:33.088Z,24.10
2018-05-04T17:31:00.576Z,24.00
2018-05-04T17:33:28.887Z,24.20
2018-05-04T17:35:56.402Z,24.20
2018-05-04T17:38:24.710Z,24.30
2018-05-04T17:40:52.204Z,24.20
2018-05-04T17:43:19.699Z,24.30
2018-05-04T17:45:47.993Z,24.20
2018-05-04T17:48:15.518Z,24.20
2018-05-04T17:50:43.053Z,24.30
2018-05-04T17:53:10.555Z,24.20
2018-05-04T17:55:38.839Z,24.10
2018-05-04T17:58:06.343Z,24.00
2018-05-04T18:00:33.842Z,23.90
2018-05-04T18:03:02.132Z,23.80
2018-05-04T18:05:30.437Z,23.70
2018-05-04T18:07:57.976Z,23.70
2018-05-04T18:10:25.501Z,23.50
2018-05-04T18:12:53.043Z,23.20
2018-05-04T18:15:20.538Z,23.20
2018-05-04T18:17:48.810Z,23.30
2018-05-04T18:20:17.078Z,23.10
2018-05-04T18:22:45.376Z,23.20
2018-05-04T18:25:12.902Z,23.20
2018-05-04T18:27:40.402Z,22.90
2018-05-04T18:30:07.936Z,22.90
2018-05-04T18:32:36.213Z,22.70
2018-05-04T18:35:04.501Z,22.60
2018-05-04T18:37:32.037Z,22.60
2018-05-04T18:40:00.306Z,22.40
2018-05-04T18:42:27.814Z,22.30
2018-05-04T18:44:55.345Z,22.30
2018-05-04T18:47:23.655Z,22.00
2018-05-04T18:49:51.217Z,22.00
2018-05-04T18:52:18.758Z,21.80
2018-05-04T18:54:46.313Z,21.80
2018-05-04T18:57:13.841Z,21.80
2018-05-04T18:59:41.377Z,21.60
2018-05-04T19:02:08.880Z,21.60
2018-05-04T19:04:37.213Z,21.30
2018-05-04T19:07:04.758Z,21.30
2018-05-04T19:09:32.314Z,21.20
2018-05-04T19:12:00.466Z,21.30
2018-05-04T19:14:28.145Z,21.10
2018-05-04T19:16:55.700Z,21.00
2018-05-04T19:19:23.266Z,21.00
2018-05-04T19:21:51.081Z,20.90
2018-05-04T19:24:19.736Z,20.50
2018-05-04T19:26:47.320Z,20.50
2018-05-04T19:29:15.024Z,20.40
2018-05-04T19:31:42.578Z,20.40
2018-05-04T19:34:10.444Z,20.30
2018-05-04T19:36:38.230Z,20.30
2018-05-04T19:39:06.577Z,20.10
2018-05-04T19:41:34.182Z,20.10
2018-05-04T19:44:01.694Z,20.00
2018-05-04T19:46:30.101Z,19.80
2018-05-04T19:48:57.762Z,19.80
2018-05-04T19:51:25.493Z,19.70
2018-05-04T19:53:53.063Z,19.70
2018-05-04T19:56:20.624Z,19.60
2018-05-04T19:58:48.447Z,19.50
2018-05-04T20:01:16.229Z,19.50
2018-05-04T20:03:44.747Z,19.30
2018-05-04T20:06:12.282Z,19.30
2018-05-04T20:08:41.785Z,19.20
2018-05-04T20:11:10.068Z,19.20
2018-05-04T20:13:37.685Z,19.10
2018-05-04T20:16:05.478Z,19.10
2018-05-04T20:18:33.083Z,19.00
2018-05-04T20:21:00.774Z,19.00
2018-05-04T20:23:28.326Z,18.90
2018-05-04T20:25:55.849Z,18.90
2018-05-04T20:28:23.467Z,18.70
2018-05-04T20:30:51.219Z,18.60
2018-05-04T20:33:18.765Z,18.60
2018-05-04T20:35:46.260Z,18.50
2018-05-04T20:38:14.571Z,18.30
2018-05-04T20:40:42.384Z,18.30
2018-05-04T20:43:10.227Z,18.30
2018-05-04T20:45:37.843Z,18.20
2018-05-04T20:48:06.138Z,18.10
2018-05-04T20:50:33.724Z,18.10
2018-05-04T20:53:01.745Z,18.10
2018-05-04T20:55:29.323Z,18.10
2018-05-04T20:57:56.853Z,18.00
2018-05-04T21:00:24.343Z,17.90
2018-05-04T21:02:52.461Z,17.90
2018-05-04T21:05:20.074Z,17.80
2018-05-04T21:07:47.709Z,17.80
2018-05-04T21:10:15.980Z,17.60
2018-05-04T21:12:43.603Z,17.60
2018-05-04T21:15:11.677Z,17.50
2018-05-04T21:17:39.278Z,17.50
2018-05-04T21:20:07.579Z,17.40
2018-05-04T21:22:35.115Z,17.40
2018-05-04T21:25:03.004Z,17.30
2018-05-04T21:27:30.635Z,17.30
2018-05-04T21:29:58.226Z,17.20
2018-05-04T21:32:25.745Z,17.20
2018-05-04T21:34:53.297Z,17.10
2018-05-04T21:37:20.825Z,17.10
2018-05-04T21:39:48.325Z,17.00
2018-05-04T21:42:15.852Z,16.90
2018-05-04T21:44:43.391Z,16.80
2018-05-04T21:47:11.638Z,16.50
2018-05-04T21:49:39.920Z,16.50
2018-05-04T21:52:08.230Z,16.50
2018-05-04T21:54:35.742Z,16.50
2018-05-04T21:57:04.047Z,16.50
2018-05-04T21:59:31.613Z,16.50
2018-05-04T22:01:59.149Z,16.60
2018-05-04T22:04:27.449Z,16.40
2018-05-04T22:06:54.994Z,16.40
2018-05-04T22:09:22.507Z,16.40
2018-05-04T22:11:50.026Z,16.30
2018-05-04T22:14:17.567Z,16.30
2018-05-04T22:16:45.085Z,16.20
2018-05-04T22:19:12.597Z,16.10
2018-05-04T22:21:40.123Z,16.10
2018-05-04T22:24:07.686Z,16.10
2018-05-04T22:26:36.070Z,16.00
2018-05-04T22:29:04.279Z,16.00
2018-05-04T22:31:31.784Z,16.00
2018-05-04T22:33:59.290Z,16.00
2018-05-04T22:36:26.806Z,16.00
2018-05-04T22:38:54.332Z,15.90
2018-05-04T22:41:21.861Z,16.00
2018-05-04T22:43:49.394Z,15.90
2018-05-04T22:46:17.674Z,15.80
2018-05-04T22:48:45.958Z,15.90
2018-05-04T22:51:13.522Z,15.90
2018-05-04T22:53:41.093Z,15.80
2018-05-04T22:56:08.628Z,15.70
2018-05-04T22:58:36.162Z,15.50
2018-05-04T23:01:03.671Z,15.50
2018-05-04T23:03:31.203Z,15.60
2018-05-04T23:05:59.492Z,15.60
2018-05-04T23:08:27.020Z,15.60
2018-05-04T23:10:54.550Z,15.50
2018-05-04T23:13:22.077Z,15.50
2018-05-04T23:15:49.582Z,15.40
2018-05-04T23:18:17.123Z,15.50
2018-05-04T23:20:44.666Z,15.60
2018-05-04T23:23:12.234Z,15.60
2018-05-04T23:25:39.733Z,15.60
2018-05-04T23:28:07.237Z,15.70
2018-05-04T23:30:34.750Z,15.70
2018-05-04T23:33:02.288Z,15.80
2018-05-04T23:35:29.817Z,15.90
2018-05-04T23:37:58.105Z,15.80
2018-05-04T23:40:25.628Z,15.80
2018-05-04T23:42:53.895Z,15.70
2018-05-04T23:45:22.176Z,15.70
2018-05-04T23:47:50.486Z,15.70
2018-05-04T23:50:17.988Z,15.70
2018-05-04T23:52:45.548Z,15.60
2018-05-04T23:55:13.082Z,15.70
2018-05-04T23:57:40.589Z,15.70
